createdAt,value
2018-12-30T00:00:38.077Z,1025.96
2018-12-30T00:01:38.068Z,1025.95
2018-12-30T00:02:38.038Z,1025.91
2018-12-30T00:03:38.038Z,1025.94
2018-12-30T00:04:38.010Z,1026.01
2018-12-30T00:05:37.985Z,1026.00
2018-12-30T00:06:37.961Z,1025.99
2018-12-30T00:07:37.958Z,1026.04
2018-12-30T00:08:37.932Z,1026.06
2018-12-30T00:09:37.907Z,1026.12
2018-12-30T00:10:37.910Z,1026.12
2018-12-30T00:11:37.880Z,1026.11
2018-12-30T00:12:37.861Z,1026.12
2018-12-30T00:13:37.823Z,1026.14
2018-12-30T00:14:37.842Z,1026.12
2018-12-30T00:15:37.799Z,1026.17
2018-12-30T00:16:37.782Z,1026.20
2018-12-30T00:17:39.494Z,1026.21
2018-12-30T00:18:38.554Z,1026.22
2018-12-30T00:19:42.567Z,1026.22
2018-12-30T00:20:38.787Z,1026.28
2018-12-30T00:21:38.523Z,1026.26
2018-12-30T00:22:37.658Z,1026.19
2018-12-30T00:23:39.494Z,1026.19
2018-12-30T00:24:40.503Z,1026.26
2018-12-30T00:25:43.510Z,1026.24
2018-12-30T00:26:38.540Z,1026.32
2018-12-30T00:27:37.564Z,1026.23
2018-12-30T00:28:39.494Z,1026.26
2018-12-30T00:29:37.509Z,1026.20
2018-12-30T00:30:37.493Z,1026.21
2018-12-30T00:31:37.486Z,1026.28
2018-12-30T00:32:37.494Z,1026.31
2018-12-30T00:33:37.429Z,1026.32
2018-12-30T00:34:37.406Z,1026.34
2018-12-30T00:35:38.093Z,1026.35
2018-12-30T00:36:38.030Z,1026.44
2018-12-30T00:37:38.996Z,1026.48
2018-12-30T00:38:38.079Z,1026.48
2018-12-30T00:39:38.095Z,1026.48
2018-12-30T00:40:38.085Z,1026.47
2018-12-30T00:41:38.037Z,1026.45
2018-12-30T00:42:38.072Z,1026.51
2018-12-30T00:43:38.040Z,1026.58
2018-12-30T00:44:38.539Z,1026.59
2018-12-30T00:45:39.517Z,1026.60
2018-12-30T00:46:38.022Z,1026.62
2018-12-30T00:47:42.508Z,1026.64
2018-12-30T00:48:41.046Z,1026.60
2018-12-30T00:49:37.138Z,1026.55
2018-12-30T00:50:37.097Z,1026.61
2018-12-30T00:51:44.499Z,1026.60
2018-12-30T00:52:42.000Z,1026.63
2018-12-30T00:53:37.044Z,1026.64
2018-12-30T00:54:40.999Z,1026.68
2018-12-30T00:55:37.011Z,1026.64
2018-12-30T00:56:37.007Z,1026.70
2018-12-30T00:57:36.969Z,1026.67
2018-12-30T00:58:38.055Z,1026.73
2018-12-30T00:59:37.541Z,1026.70
2018-12-30T01:00:36.910Z,1026.65
2018-12-30T01:01:36.888Z,1026.70
2018-12-30T01:02:36.890Z,1026.74
2018-12-30T01:03:36.850Z,1026.76
2018-12-30T01:04:37.520Z,1026.78
2018-12-30T01:05:36.796Z,1026.74
2018-12-30T01:06:40.503Z,1026.81
2018-12-30T01:07:38.512Z,1026.84
2018-12-30T01:08:38.540Z,1026.90
2018-12-30T01:09:37.555Z,1026.94
2018-12-30T01:10:38.540Z,1026.94
2018-12-30T01:11:39.505Z,1026.92
2018-12-30T01:12:37.548Z,1027.02
2018-12-30T01:13:39.533Z,1027.05
2018-12-30T01:14:38.563Z,1027.07
2018-12-30T01:15:38.503Z,1027.07
2018-12-30T01:16:38.503Z,1027.11
2018-12-30T01:17:38.503Z,1027.17
2018-12-30T01:18:39.542Z,1027.17
2018-12-30T01:19:38.046Z,1027.10
2018-12-30T01:20:37.513Z,1027.05
2018-12-30T01:21:38.512Z,1026.98
2018-12-30T01:22:37.095Z,1026.98
2018-12-30T01:23:38.005Z,1027.05
2018-12-30T01:24:38.004Z,1027.06
2018-12-30T01:25:37.011Z,1027.11
2018-12-30T01:26:37.031Z,1027.09
2018-12-30T01:27:38.030Z,1027.12
2018-12-30T01:28:36.389Z,1027.18
2018-12-30T01:29:37.093Z,1027.23
2018-12-30T01:30:36.327Z,1027.22
2018-12-30T01:31:37.022Z,1027.23
2018-12-30T01:32:38.005Z,1027.22
2018-12-30T01:33:38.585Z,1027.20
2018-12-30T01:34:43.092Z,1027.25
2018-12-30T01:35:38.008Z,1027.23
2018-12-30T01:36:40.016Z,1027.30
2018-12-30T01:37:39.021Z,1027.35
2018-12-30T01:38:38.005Z,1027.33
2018-12-30T01:39:37.014Z,1027.31
2018-12-30T01:40:36.118Z,1027.25
2018-12-30T01:41:36.090Z,1027.21
2018-12-30T01:42:36.071Z,1027.22
2018-12-30T01:43:36.050Z,1027.22
2018-12-30T01:44:36.034Z,1027.26
2018-12-30T01:45:36.034Z,1027.22
2018-12-30T01:46:35.984Z,1027.26
2018-12-30T01:47:35.967Z,1027.32
2018-12-30T01:48:35.950Z,1027.36
2018-12-30T01:49:35.966Z,1027.35
2018-12-30T01:50:35.917Z,1027.30
2018-12-30T01:51:35.896Z,1027.33
2018-12-30T01:52:35.871Z,1027.41
2018-12-30T01:53:35.870Z,1027.40
2018-12-30T01:54:35.834Z,1027.41
2018-12-30T01:55:35.814Z,1027.33
2018-12-30T01:56:35.793Z,1027.33
2018-12-30T01:57:35.786Z,1027.40
2018-12-30T01:58:35.752Z,1027.45
2018-12-30T01:59:35.735Z,1027.52
2018-12-30T02:00:35.718Z,1027.44
2018-12-30T02:01:35.699Z,1027.49
2018-12-30T02:02:35.675Z,1027.50
2018-12-30T02:03:35.668Z,1027.50
2018-12-30T02:04:35.652Z,1027.53
2018-12-30T02:05:35.617Z,1027.53
2018-12-30T02:06:35.598Z,1027.56
2018-12-30T02:07:35.590Z,1027.58
2018-12-30T02:08:35.556Z,1027.61
2018-12-30T02:09:35.538Z,1027.67
2018-12-30T02:10:35.521Z,1027.64
2018-12-30T02:11:35.512Z,1027.62
2018-12-30T02:12:35.483Z,1027.62
2018-12-30T02:13:35.456Z,1027.56
2018-12-30T02:14:35.477Z,1027.58
2018-12-30T02:15:35.421Z,1027.64
2018-12-30T02:16:35.448Z,1027.66
2018-12-30T02:17:35.379Z,1027.68
2018-12-30T02:18:35.381Z,1027.71
2018-12-30T02:19:35.338Z,1027.74
2018-12-30T02:20:35.330Z,1027.72
2018-12-30T02:21:41.087Z,1027.70
2018-12-30T02:22:35.372Z,1027.69
2018-12-30T02:23:35.271Z,1027.65
2018-12-30T02:24:35.242Z,1027.70
2018-12-30T02:25:35.236Z,1027.78
2018-12-30T02:26:35.202Z,1027.82
2018-12-30T02:27:35.200Z,1027.83
2018-12-30T02:28:35.164Z,1027.87
2018-12-30T02:29:35.175Z,1027.86
2018-12-30T02:30:35.148Z,1027.88
2018-12-30T02:31:35.103Z,1027.99
2018-12-30T02:32:35.084Z,1027.92
2018-12-30T02:33:35.062Z,1027.95
2018-12-30T02:34:35.059Z,1027.97
2018-12-30T02:35:35.136Z,1028.01
2018-12-30T02:36:35.042Z,1027.99
2018-12-30T02:37:34.990Z,1028.01
2018-12-30T02:38:34.966Z,1028.07
2018-12-30T02:39:34.950Z,1028.09
2018-12-30T02:40:34.929Z,1028.05
2018-12-30T02:41:34.924Z,1028.02
2018-12-30T02:42:34.888Z,1027.95
2018-12-30T02:43:34.868Z,1027.87
2018-12-30T02:44:34.902Z,1027.83
2018-12-30T02:45:34.831Z,1027.87
2018-12-30T02:46:34.808Z,1027.91
2018-12-30T02:47:34.791Z,1027.85
2018-12-30T02:48:34.774Z,1027.91
2018-12-30T02:49:34.767Z,1028.04
2018-12-30T02:50:34.731Z,1028.01
2018-12-30T02:51:34.720Z,1027.86
2018-12-30T02:52:34.693Z,1027.86
2018-12-30T02:53:34.672Z,1027.91
2018-12-30T02:54:34.653Z,1027.82
2018-12-30T02:55:34.651Z,1027.56
2018-12-30T02:56:34.615Z,1027.70
2018-12-30T02:57:34.594Z,1027.92
2018-12-30T02:58:34.576Z,1028.05
2018-12-30T02:59:34.562Z,1027.96
2018-12-30T03:00:34.556Z,1027.96
2018-12-30T03:01:34.517Z,1027.96
2018-12-30T03:02:34.501Z,1027.98
2018-12-30T03:03:34.479Z,1028.05
2018-12-30T03:04:34.456Z,1028.07
2018-12-30T03:05:34.433Z,1027.99
2018-12-30T03:06:34.431Z,1027.95
2018-12-30T03:07:34.426Z,1027.97
2018-12-30T03:08:34.381Z,1028.02
2018-12-30T03:09:35.102Z,1028.03
2018-12-30T03:10:34.491Z,1028.01
2018-12-30T03:11:34.320Z,1028.13
2018-12-30T03:12:34.298Z,1028.14
2018-12-30T03:13:34.286Z,1028.12
2018-12-30T03:14:34.263Z,1028.00
2018-12-30T03:15:34.274Z,1027.91
2018-12-30T03:16:34.231Z,1027.94
2018-12-30T03:17:34.200Z,1028.02
2018-12-30T03:18:34.184Z,1027.93
2018-12-30T03:19:34.163Z,1027.88
2018-12-30T03:20:34.142Z,1027.89
2018-12-30T03:21:34.140Z,1027.94
2018-12-30T03:22:34.120Z,1027.93
2018-12-30T03:23:34.099Z,1027.82
2018-12-30T03:24:34.064Z,1027.73
2018-12-30T03:25:34.057Z,1027.66
2018-12-30T03:26:34.036Z,1027.69
2018-12-30T03:27:34.023Z,1027.66
2018-12-30T03:28:34.006Z,1027.65
2018-12-30T03:29:33.970Z,1027.87
2018-12-30T03:30:33.963Z,1028.05
2018-12-30T03:31:33.949Z,1028.05
2018-12-30T03:32:33.909Z,1027.99
2018-12-30T03:33:33.891Z,1027.91
2018-12-30T03:34:34.026Z,1027.93
2018-12-30T03:35:33.851Z,1028.04
2018-12-30T03:36:33.883Z,1028.04
2018-12-30T03:37:33.826Z,1027.99
2018-12-30T03:38:33.797Z,1028.04
2018-12-30T03:39:33.784Z,1028.10
2018-12-30T03:40:33.748Z,1028.14
2018-12-30T03:41:33.732Z,1028.10
2018-12-30T03:42:33.735Z,1028.08
2018-12-30T03:43:33.694Z,1028.13
2018-12-30T03:44:33.673Z,1028.14
2018-12-30T03:45:33.654Z,1028.16
2018-12-30T03:46:33.638Z,1028.15
2018-12-30T03:47:33.633Z,1028.10
2018-12-30T03:48:33.592Z,1028.09
2018-12-30T03:49:33.576Z,1028.14
2018-12-30T03:50:33.560Z,1028.25
2018-12-30T03:51:33.537Z,1028.25
2018-12-30T03:52:33.517Z,1028.15
2018-12-30T03:53:33.518Z,1028.16
2018-12-30T03:54:33.476Z,1028.17
2018-12-30T03:55:33.460Z,1028.21
2018-12-30T03:56:33.434Z,1028.24
2018-12-30T03:57:33.430Z,1028.24
2018-12-30T03:58:33.399Z,1028.21
2018-12-30T03:59:33.397Z,1028.22
2018-12-30T04:00:33.360Z,1028.25
2018-12-30T04:01:33.347Z,1028.29
2018-12-30T04:02:33.318Z,1028.28
2018-12-30T04:03:33.300Z,1028.30
2018-12-30T04:04:33.321Z,1028.30
2018-12-30T04:05:33.272Z,1028.33
2018-12-30T04:06:33.246Z,1028.32
2018-12-30T04:07:33.230Z,1028.38
2018-12-30T04:08:33.205Z,1028.43
2018-12-30T04:09:33.185Z,1028.40
2018-12-30T04:10:33.210Z,1028.35
2018-12-30T04:11:33.163Z,1028.39
2018-12-30T04:12:33.130Z,1028.37
2018-12-30T04:13:33.103Z,1028.32
2018-12-30T04:14:33.088Z,1028.26
2018-12-30T04:15:33.065Z,1028.23
2018-12-30T04:16:33.071Z,1028.26
2018-12-30T04:17:33.040Z,1028.24
2018-12-30T04:18:33.011Z,1028.21
2018-12-30T04:19:33.017Z,1028.23
2018-12-30T04:20:32.966Z,1028.26
2018-12-30T04:21:32.953Z,1028.34
2018-12-30T04:22:33.902Z,1028.36
2018-12-30T04:23:32.938Z,1028.37
2018-12-30T04:24:32.905Z,1028.34
2018-12-30T04:25:32.872Z,1028.26
2018-12-30T04:26:32.854Z,1028.27
2018-12-30T04:27:32.858Z,1028.26
2018-12-30T04:28:32.816Z,1028.25
2018-12-30T04:29:32.807Z,1028.21
2018-12-30T04:30:32.775Z,1028.25
2018-12-30T04:31:32.756Z,1028.23
2018-12-30T04:32:32.748Z,1028.30
2018-12-30T04:33:32.732Z,1028.30
2018-12-30T04:34:32.697Z,1028.32
2018-12-30T04:35:32.673Z,1028.31
2018-12-30T04:36:32.661Z,1028.32
2018-12-30T04:37:32.641Z,1028.32
2018-12-30T04:38:32.617Z,1028.37
2018-12-30T04:39:32.642Z,1028.38
2018-12-30T04:40:32.585Z,1028.38
2018-12-30T04:41:32.559Z,1028.41
2018-12-30T04:42:32.540Z,1028.47
2018-12-30T04:43:32.526Z,1028.42
2018-12-30T04:44:32.502Z,1028.44
2018-12-30T04:45:32.499Z,1028.43
2018-12-30T04:46:32.458Z,1028.46
2018-12-30T04:47:32.448Z,1028.45
2018-12-30T04:48:32.423Z,1028.42
2018-12-30T04:49:32.421Z,1028.46
2018-12-30T04:50:32.389Z,1028.41
2018-12-30T04:51:32.384Z,1028.43
2018-12-30T04:52:32.336Z,1028.39
2018-12-30T04:53:32.323Z,1028.41
2018-12-30T04:54:32.317Z,1028.40
2018-12-30T04:55:32.293Z,1028.42
2018-12-30T04:56:32.260Z,1028.45
2018-12-30T04:57:32.258Z,1028.46
2018-12-30T04:58:32.221Z,1028.46
2018-12-30T04:59:32.216Z,1028.51
2018-12-30T05:00:32.184Z,1028.50
2018-12-30T05:01:32.159Z,1028.48
2018-12-30T05:02:32.143Z,1028.41
2018-12-30T05:03:32.125Z,1028.48
2018-12-30T05:04:32.124Z,1028.41
2018-12-30T05:05:32.079Z,1028.41
2018-12-30T05:06:32.071Z,1028.47
2018-12-30T05:07:32.046Z,1028.52
2018-12-30T05:08:32.036Z,1028.55
2018-12-30T05:09:32.004Z,1028.56
2018-12-30T05:10:32.007Z,1028.58
2018-12-30T05:11:32.140Z,1028.62
2018-12-30T05:12:31.947Z,1028.64
2018-12-30T05:13:31.927Z,1028.61
2018-12-30T05:14:31.921Z,1028.65
2018-12-30T05:15:31.889Z,1028.59
2018-12-30T05:16:31.865Z,1028.63
2018-12-30T05:17:31.847Z,1028.61
2018-12-30T05:18:31.847Z,1028.63
2018-12-30T05:19:31.807Z,1028.62
2018-12-30T05:20:31.790Z,1028.65
2018-12-30T05:21:31.785Z,1028.64
2018-12-30T05:22:33.944Z,1028.70
2018-12-30T05:23:31.727Z,1028.64
2018-12-30T05:24:31.708Z,1028.70
2018-12-30T05:25:31.688Z,1028.68
2018-12-30T05:26:31.677Z,1028.68
2018-12-30T05:27:31.716Z,1028.72
2018-12-30T05:28:31.630Z,1028.73
2018-12-30T05:29:31.616Z,1028.73
2018-12-30T05:30:31.607Z,1028.69
2018-12-30T05:31:31.567Z,1028.73
2018-12-30T05:32:31.550Z,1028.67
2018-12-30T05:33:31.531Z,1028.60
2018-12-30T05:34:31.519Z,1028.55
2018-12-30T05:35:31.492Z,1028.57
2018-12-30T05:36:31.487Z,1028.58
2018-12-30T05:37:31.496Z,1028.58
2018-12-30T05:38:31.430Z,1028.50
2018-12-30T05:39:31.409Z,1028.49
2018-12-30T05:40:31.393Z,1028.53
2018-12-30T05:41:31.412Z,1028.56
2018-12-30T05:42:31.356Z,1028.55
2018-12-30T05:43:31.347Z,1028.63
2018-12-30T05:44:31.315Z,1028.65
2018-12-30T05:45:31.290Z,1028.72
2018-12-30T05:46:31.291Z,1028.76
2018-12-30T05:47:31.252Z,1028.79
2018-12-30T05:48:31.256Z,1028.74
2018-12-30T05:49:31.212Z,1028.69
2018-12-30T05:50:31.196Z,1028.76
2018-12-30T05:51:31.169Z,1028.85
2018-12-30T05:52:31.171Z,1028.92
2018-12-30T05:53:31.148Z,1028.83
2018-12-30T05:54:31.109Z,1028.72
2018-12-30T05:55:31.132Z,1028.67
2018-12-30T05:56:32.036Z,1028.73
2018-12-30T05:57:31.048Z,1028.79
2018-12-30T05:58:31.055Z,1028.70
2018-12-30T05:59:31.011Z,1028.68
2018-12-30T06:00:30.992Z,1028.75
2018-12-30T06:01:30.967Z,1028.89
2018-12-30T06:02:30.948Z,1028.91
2018-12-30T06:03:30.947Z,1028.89
2018-12-30T06:04:30.933Z,1028.80
2018-12-30T06:05:30.888Z,1028.88
2018-12-30T06:06:30.872Z,1028.85
2018-12-30T06:07:30.854Z,1028.80
2018-12-30T06:08:30.840Z,1028.78
2018-12-30T06:09:30.832Z,1028.84
2018-12-30T06:10:30.789Z,1028.87
2018-12-30T06:11:30.787Z,1028.88
2018-12-30T06:12:30.769Z,1028.85
2018-12-30T06:13:30.736Z,1028.85
2018-12-30T06:14:30.711Z,1028.99
2018-12-30T06:15:30.699Z,1029.09
2018-12-30T06:16:30.701Z,1029.11
2018-12-30T06:17:30.655Z,1029.12
2018-12-30T06:18:30.649Z,1029.14
2018-12-30T06:19:30.612Z,1029.16
2018-12-30T06:20:30.591Z,1029.16
2018-12-30T06:21:30.571Z,1029.09
2018-12-30T06:22:30.555Z,1029.10
2018-12-30T06:23:30.559Z,1029.11
2018-12-30T06:24:30.514Z,1029.09
2018-12-30T06:25:30.491Z,1029.04
2018-12-30T06:26:30.479Z,1028.96
2018-12-30T06:27:30.458Z,1028.99
2018-12-30T06:28:30.429Z,1029.11
2018-12-30T06:29:30.561Z,1029.23
2018-12-30T06:30:30.402Z,1029.24
2018-12-30T06:31:30.376Z,1029.21
2018-12-30T06:32:30.384Z,1029.24
2018-12-30T06:33:30.331Z,1029.29
2018-12-30T06:34:30.318Z,1029.31
2018-12-30T06:35:30.318Z,1029.28
2018-12-30T06:36:30.274Z,1029.18
2018-12-30T06:37:30.254Z,1029.29
2018-12-30T06:38:31.108Z,1029.34
2018-12-30T06:41:12.590Z,1029.40
2018-12-30T06:42:12.506Z,1029.46
2018-12-30T06:43:12.505Z,1029.49
2018-12-30T06:44:12.466Z,1029.50
2018-12-30T06:45:12.471Z,1029.47
2018-12-30T06:46:13.123Z,1029.44
2018-12-30T06:47:12.405Z,1029.52
2018-12-30T06:48:12.422Z,1029.53
2018-12-30T06:49:12.436Z,1029.50
2018-12-30T06:50:12.490Z,1029.50
2018-12-30T06:53:00.050Z,1029.57
2018-12-30T06:55:42.497Z,1029.64
2018-12-30T06:58:22.534Z,1029.70
2018-12-30T06:59:22.506Z,1029.76
2018-12-30T07:00:22.482Z,1029.75
2018-12-30T07:01:22.464Z,1029.70
2018-12-30T07:02:22.445Z,1029.78
2018-12-30T07:03:22.445Z,1029.79
2018-12-30T07:04:22.403Z,1029.77
2018-12-30T07:05:22.382Z,1029.77
2018-12-30T07:06:22.362Z,1029.82
2018-12-30T07:07:22.344Z,1029.81
2018-12-30T07:08:22.324Z,1029.80
2018-12-30T07:09:22.331Z,1029.76
2018-12-30T07:10:22.283Z,1029.79
2018-12-30T07:11:22.266Z,1029.81
2018-12-30T07:12:22.269Z,1029.82
2018-12-30T07:13:22.225Z,1029.85
2018-12-30T07:14:22.205Z,1029.89
2018-12-30T07:15:22.190Z,1029.95
2018-12-30T07:16:22.238Z,1029.93
2018-12-30T07:17:22.146Z,1029.87
2018-12-30T07:18:22.151Z,1029.88
2018-12-30T07:19:22.103Z,1029.89
2018-12-30T07:20:22.087Z,1029.94
2018-12-30T07:21:22.080Z,1029.91
2018-12-30T07:22:22.045Z,1029.84
2018-12-30T07:23:22.029Z,1029.81
2018-12-30T07:24:22.021Z,1029.83
2018-12-30T07:25:21.985Z,1029.85
2018-12-30T07:26:21.969Z,1029.91
2018-12-30T07:27:21.945Z,1029.83
2018-12-30T07:28:21.944Z,1029.88
2018-12-30T07:29:21.906Z,1029.89
2018-12-30T07:30:21.893Z,1029.88
2018-12-30T07:31:21.888Z,1029.91
2018-12-30T07:32:21.859Z,1029.90
2018-12-30T07:33:23.067Z,1029.95
2018-12-30T07:34:21.809Z,1029.92
2018-12-30T07:35:21.783Z,1029.83
2018-12-30T07:36:21.764Z,1029.83
2018-12-30T07:37:21.771Z,1029.88
2018-12-30T07:38:21.744Z,1029.90
2018-12-30T07:39:21.703Z,1029.85
2018-12-30T07:40:21.725Z,1029.85
2018-12-30T07:41:21.664Z,1029.78
2018-12-30T07:42:21.653Z,1029.80
2018-12-30T07:43:21.625Z,1029.79
2018-12-30T07:44:21.623Z,1029.84
2018-12-30T07:45:21.590Z,1029.82
2018-12-30T07:46:21.574Z,1029.73
2018-12-30T07:47:21.547Z,1029.65
2018-12-30T07:48:21.538Z,1029.73
2018-12-30T07:49:21.508Z,1029.75
2018-12-30T07:50:21.512Z,1029.73
2018-12-30T07:51:21.466Z,1029.75
2018-12-30T07:52:21.479Z,1029.75
2018-12-30T07:53:21.453Z,1029.77
2018-12-30T07:54:21.407Z,1029.78
2018-12-30T07:55:21.403Z,1029.75
2018-12-30T07:56:21.364Z,1029.77
2018-12-30T07:57:21.350Z,1029.75
2018-12-30T07:58:21.341Z,1029.77
2018-12-30T07:59:21.304Z,1029.76
2018-12-30T08:00:21.288Z,1029.79
2018-12-30T08:01:21.275Z,1029.79
2018-12-30T08:02:21.258Z,1029.83
2018-12-30T08:03:21.248Z,1029.86
2018-12-30T08:04:21.207Z,1029.86
2018-12-30T08:05:21.186Z,1029.85
2018-12-30T08:06:21.165Z,1029.88
2018-12-30T08:07:21.175Z,1029.89
2018-12-30T08:08:21.136Z,1029.90
2018-12-30T08:09:21.112Z,1029.97
2018-12-30T08:10:21.089Z,1029.95
2018-12-30T08:11:21.072Z,1029.92
2018-12-30T08:12:21.054Z,1029.84
2018-12-30T08:13:21.067Z,1029.84
2018-12-30T08:14:21.012Z,1029.91
2018-12-30T08:15:20.990Z,1029.93
2018-12-30T08:16:20.973Z,1029.90
2018-12-30T08:17:20.957Z,1029.93
2018-12-30T08:18:20.936Z,1029.89
2018-12-30T08:19:20.929Z,1029.85
2018-12-30T08:20:20.925Z,1029.87
2018-12-30T08:21:20.885Z,1029.93
2018-12-30T08:22:20.858Z,1030.01
2018-12-30T08:23:21.828Z,1029.97
2018-12-30T08:24:20.817Z,1029.92
2018-12-30T08:25:20.792Z,1030.03
2018-12-30T08:26:20.798Z,1030.09
2018-12-30T08:27:20.757Z,1030.01
2018-12-30T08:28:24.940Z,1030.03
2018-12-30T08:29:20.720Z,1030.13
2018-12-30T08:30:20.703Z,1030.19
2018-12-30T08:31:20.687Z,1030.25
2018-12-30T08:32:20.679Z,1030.29
2018-12-30T08:33:20.647Z,1030.26
2018-12-30T08:34:20.618Z,1030.23
2018-12-30T08:35:20.600Z,1030.16
2018-12-30T08:36:20.581Z,1030.10
2018-12-30T08:37:21.074Z,1030.08
2018-12-30T08:38:20.563Z,1030.14
2018-12-30T08:39:20.520Z,1030.17
2018-12-30T08:40:20.502Z,1030.16
2018-12-30T08:41:20.493Z,1030.10
2018-12-30T08:42:20.458Z,1030.06
2018-12-30T08:43:20.465Z,1030.09
2018-12-30T08:44:20.424Z,1030.05
2018-12-30T08:45:20.408Z,1030.08
2018-12-30T08:46:20.385Z,1030.12
2018-12-30T08:47:20.385Z,1030.10
2018-12-30T08:48:20.355Z,1030.12
2018-12-30T08:49:20.346Z,1030.20
2018-12-30T08:50:20.311Z,1030.23
2018-12-30T08:51:20.283Z,1030.26
2018-12-30T08:52:20.264Z,1030.24
2018-12-30T08:53:20.269Z,1030.27
2018-12-30T08:54:20.224Z,1030.27
2018-12-30T08:55:20.232Z,1030.23
2018-12-30T08:56:20.190Z,1030.30
2018-12-30T08:57:20.171Z,1030.34
2018-12-30T08:58:20.166Z,1030.25
2018-12-30T08:59:20.135Z,1030.28
2018-12-30T09:00:20.116Z,1030.34
2018-12-30T09:01:28.111Z,1030.32
2018-12-30T09:02:20.073Z,1030.34
2018-12-30T09:03:20.062Z,1030.33
2018-12-30T09:04:20.043Z,1030.36
2018-12-30T09:05:20.016Z,1030.31
2018-12-30T09:06:20.021Z,1030.34
2018-12-30T09:07:19.991Z,1030.37
2018-12-30T09:08:19.956Z,1030.33
2018-12-30T09:09:19.949Z,1030.39
2018-12-30T09:10:19.922Z,1030.41
2018-12-30T09:11:19.908Z,1030.41
2018-12-30T09:12:19.899Z,1030.42
2018-12-30T09:13:19.861Z,1030.39
2018-12-30T09:14:19.846Z,1030.42
2018-12-30T09:15:19.842Z,1030.42
2018-12-30T09:16:19.819Z,1030.42
2018-12-30T09:17:19.808Z,1030.44
2018-12-30T09:18:19.768Z,1030.43
2018-12-30T09:19:19.746Z,1030.35
2018-12-30T09:20:19.733Z,1030.38
2018-12-30T09:21:19.705Z,1030.43
2018-12-30T09:22:19.689Z,1030.39
2018-12-30T09:23:19.685Z,1030.37
2018-12-30T09:24:19.647Z,1030.42
2018-12-30T09:25:19.629Z,1030.32
2018-12-30T09:26:19.603Z,1030.30
2018-12-30T09:27:19.594Z,1030.27
2018-12-30T09:28:19.603Z,1030.28
2018-12-30T09:29:19.555Z,1030.29
2018-12-30T09:30:19.534Z,1030.21
2018-12-30T09:31:19.517Z,1030.21
2018-12-30T09:32:19.494Z,1030.23
2018-12-30T09:33:19.487Z,1030.30
2018-12-30T09:34:19.506Z,1030.34
2018-12-30T09:35:19.433Z,1030.40
2018-12-30T09:36:19.421Z,1030.46
2018-12-30T09:37:19.399Z,1030.49
2018-12-30T09:38:19.381Z,1030.49
2018-12-30T09:39:19.377Z,1030.53
2018-12-30T09:40:19.345Z,1030.53
2018-12-30T09:41:19.323Z,1030.56
2018-12-30T09:42:19.298Z,1030.62
2018-12-30T09:43:19.283Z,1030.59
2018-12-30T09:44:19.276Z,1030.57
2018-12-30T09:45:19.272Z,1030.51
2018-12-30T09:46:19.235Z,1030.57
2018-12-30T09:47:19.218Z,1030.56
2018-12-30T09:48:19.185Z,1030.47
2018-12-30T09:49:19.165Z,1030.44
2018-12-30T09:50:19.152Z,1030.48
2018-12-30T09:51:19.157Z,1030.50
2018-12-30T09:52:19.114Z,1030.52
2018-12-30T09:53:19.094Z,1030.52
2018-12-30T09:54:19.073Z,1030.58
2018-12-30T09:55:19.061Z,1030.63
2018-12-30T09:56:19.056Z,1030.63
2018-12-30T09:57:19.018Z,1030.66
2018-12-30T09:58:18.996Z,1030.67
2018-12-30T09:59:18.986Z,1030.63
2018-12-30T10:00:18.961Z,1030.75
2018-12-30T10:01:18.957Z,1030.80
2018-12-30T10:02:19.033Z,1030.83
2018-12-30T10:03:18.904Z,1030.85
2018-12-30T10:04:18.882Z,1030.92
2018-12-30T10:05:18.862Z,1030.98
2018-12-30T10:06:18.844Z,1030.98
2018-12-30T10:07:18.848Z,1030.99
2018-12-30T10:08:18.805Z,1030.95
2018-12-30T10:09:18.795Z,1030.96
2018-12-30T10:10:18.774Z,1030.85
2018-12-30T10:11:18.750Z,1030.89
2018-12-30T10:12:18.735Z,1030.91
2018-12-30T10:13:18.729Z,1030.96
2018-12-30T10:14:18.698Z,1031.02
2018-12-30T10:15:18.673Z,1030.97
2018-12-30T10:16:18.654Z,1030.95
2018-12-30T10:17:18.640Z,1030.98
2018-12-30T10:18:18.626Z,1030.99
2018-12-30T10:19:18.618Z,1031.05
2018-12-30T10:20:18.578Z,1031.00
2018-12-30T10:21:18.560Z,1030.99
2018-12-30T10:22:18.541Z,1030.99
2018-12-30T10:23:18.525Z,1030.98
2018-12-30T10:24:18.523Z,1030.94
2018-12-30T10:25:18.497Z,1030.98
2018-12-30T10:26:18.465Z,1030.96
2018-12-30T10:27:18.449Z,1030.95
2018-12-30T10:28:18.436Z,1030.95
2018-12-30T10:29:18.414Z,1030.99
2018-12-30T10:30:18.408Z,1031.01
2018-12-30T10:31:18.372Z,1031.01
2018-12-30T10:32:18.348Z,1030.96
2018-12-30T10:33:18.344Z,1031.03
2018-12-30T10:34:18.311Z,1031.03
2018-12-30T10:35:18.287Z,1031.08
2018-12-30T10:36:18.301Z,1031.11
2018-12-30T10:37:18.255Z,1031.07
2018-12-30T10:38:18.232Z,1031.08
2018-12-30T10:39:18.230Z,1031.12
2018-12-30T10:40:18.209Z,1031.07
2018-12-30T10:41:18.177Z,1031.06
2018-12-30T10:42:18.172Z,1031.04
2018-12-30T10:43:18.145Z,1031.10
2018-12-30T10:44:18.132Z,1031.09
2018-12-30T10:45:18.122Z,1031.07
2018-12-30T10:46:18.083Z,1031.10
2018-12-30T10:47:18.080Z,1031.07
2018-12-30T10:48:18.053Z,1031.04
2018-12-30T10:49:18.038Z,1031.05
2018-12-30T10:50:18.007Z,1030.97
2018-12-30T10:51:18.005Z,1030.95
2018-12-30T10:52:17.995Z,1030.94
2018-12-30T10:53:17.963Z,1030.90
2018-12-30T10:54:17.929Z,1030.85
2018-12-30T10:55:17.910Z,1030.84
2018-12-30T10:56:17.891Z,1030.78
2018-12-30T10:57:17.892Z,1030.77
2018-12-30T10:58:17.880Z,1030.73
2018-12-30T10:59:17.835Z,1030.73
2018-12-30T11:00:17.826Z,1030.76
2018-12-30T11:01:17.798Z,1030.77
2018-12-30T11:02:17.779Z,1030.72
2018-12-30T11:03:17.787Z,1030.77
2018-12-30T11:04:17.808Z,1030.77
2018-12-30T11:05:17.725Z,1030.74
2018-12-30T11:06:17.704Z,1030.78
2018-12-30T11:07:17.683Z,1030.82
2018-12-30T11:08:17.670Z,1030.74
2018-12-30T11:09:17.676Z,1030.73
2018-12-30T11:10:17.630Z,1030.74
2018-12-30T11:11:17.616Z,1030.67
2018-12-30T11:12:17.592Z,1030.66
2018-12-30T11:13:17.582Z,1030.66
2018-12-30T11:14:17.552Z,1030.57
2018-12-30T11:15:17.559Z,1030.54
2018-12-30T11:16:17.519Z,1030.56
2018-12-30T11:17:17.500Z,1030.53
2018-12-30T11:18:17.487Z,1030.53
2018-12-30T11:19:17.461Z,1030.53
2018-12-30T11:20:17.476Z,1030.57
2018-12-30T11:21:17.425Z,1030.56
2018-12-30T11:22:17.402Z,1030.59
2018-12-30T11:23:17.384Z,1030.57
2018-12-30T11:24:17.373Z,1030.61
2018-12-30T11:25:17.348Z,1030.59
2018-12-30T11:26:17.355Z,1030.61
2018-12-30T11:27:17.310Z,1030.65
2018-12-30T11:28:17.296Z,1030.63
2018-12-30T11:29:17.271Z,1030.66
2018-12-30T11:30:17.251Z,1030.64
2018-12-30T11:31:17.232Z,1030.61
2018-12-30T11:32:17.230Z,1030.55
2018-12-30T11:33:17.194Z,1030.54
2018-12-30T11:34:17.177Z,1030.49
2018-12-30T11:35:17.156Z,1030.52
2018-12-30T11:36:17.714Z,1030.46
2018-12-30T11:37:17.142Z,1030.43
2018-12-30T11:38:17.097Z,1030.36
2018-12-30T11:39:17.084Z,1030.39
2018-12-30T11:40:17.063Z,1030.39
2018-12-30T11:41:17.046Z,1030.32
2018-12-30T11:42:17.042Z,1030.32
2018-12-30T11:43:17.017Z,1030.32
2018-12-30T11:44:16.993Z,1030.33
2018-12-30T11:45:16.969Z,1030.33
2018-12-30T11:46:16.962Z,1030.35
2018-12-30T11:47:16.934Z,1030.36
2018-12-30T11:48:16.939Z,1030.35
2018-12-30T11:49:16.890Z,1030.33
2018-12-30T11:50:16.892Z,1030.34
2018-12-30T11:51:16.864Z,1030.33
2018-12-30T11:52:16.856Z,1030.32
2018-12-30T11:53:16.834Z,1030.32
2018-12-30T11:54:16.948Z,1030.30
2018-12-30T11:55:16.777Z,1030.33
2018-12-30T11:56:16.765Z,1030.32
2018-12-30T11:57:16.747Z,1030.32
2018-12-30T11:58:16.737Z,1030.31
2018-12-30T11:59:16.711Z,1030.31
2018-12-30T12:00:16.681Z,1030.30
2018-12-30T12:01:16.667Z,1030.30
2018-12-30T12:02:23.803Z,1030.26
2018-12-30T12:03:16.650Z,1030.28
2018-12-30T12:04:16.619Z,1030.26
2018-12-30T12:05:16.615Z,1030.28
2018-12-30T12:06:16.573Z,1030.27
2018-12-30T12:07:16.556Z,1030.33
2018-12-30T12:08:16.545Z,1030.34
2018-12-30T12:09:16.516Z,1030.30
2018-12-30T12:10:16.497Z,1030.30
2018-12-30T12:11:16.502Z,1030.28
2018-12-30T12:12:16.457Z,1030.27